sensor_id;sensor_type;location;lat;lon;timestamp;pressure;altitude;pressure_sealevel;temperature;humidity
42177;BME280;28126;51.060;19.460;2022-08-07T00:02:07;100907.05;;;26.22;44.07
42177;BME280;28126;51.060;19.460;2022-08-07T00:05:09;100908.39;;;26.20;43.91
42177;BME280;28126;51.060;19.460;2022-08-07T00:08:10;100903.14;;;26.18;43.78
42177;BME280;28126;51.060;19.460;2022-08-07T00:11:12;100903.95;;;26.16;43.56
42177;BME280;28126;51.060;19.460;2022-08-07T00:14:14;100906.67;;;26.14;43.52
42177;BME280;28126;51.060;19.460;2022-08-07T00:17:15;100912.47;;;26.12;43.51
42177;BME280;28126;51.060;19.460;2022-08-07T00:20:17;100915.49;;;26.11;43.46
42177;BME280;28126;51.060;19.460;2022-08-07T00:23:18;100916.03;;;26.10;43.34
42177;BME280;28126;51.060;19.460;2022-08-07T00:26:20;100917.14;;;26.09;43.30
42177;BME280;28126;51.060;19.460;2022-08-07T00:29:22;100918.75;;;26.07;43.20
42177;BME280;28126;51.060;19.460;2022-08-07T00:32:25;100925.92;;;26.06;43.30
42177;BME280;28126;51.060;19.460;2022-08-07T00:35:28;100920.64;;;26.04;43.23
42177;BME280;28126;51.060;19.460;2022-08-07T00:38:29;100924.47;;;26.03;43.11
42177;BME280;28126;51.060;19.460;2022-08-07T00:41:33;100927.23;;;26.03;43.22
42177;BME280;28126;51.060;19.460;2022-08-07T00:44:35;100922.52;;;26.01;43.17
42177;BME280;28126;51.060;19.460;2022-08-07T00:47:37;100925.85;;;26.01;43.17
42177;BME280;28126;51.060;19.460;2022-08-07T00:50:39;100920.03;;;26.00;43.02
42177;BME280;28126;51.060;19.460;2022-08-07T00:53:40;100923.59;;;25.98;43.03
42177;BME280;28126;51.060;19.460;2022-08-07T00:56:42;100927.97;;;25.94;43.21
42177;BME280;28126;51.060;19.460;2022-08-07T00:59:44;100927.92;;;25.89;43.11
42177;BME280;28126;51.060;19.460;2022-08-07T01:02:46;100933.97;;;25.86;43.17
42177;BME280;28126;51.060;19.460;2022-08-07T01:05:48;100933.40;;;25.84;43.13
42177;BME280;28126;51.060;19.460;2022-08-07T01:08:50;100935.28;;;25.81;43.22
42177;BME280;28126;51.060;19.460;2022-08-07T01:11:53;100933.62;;;25.80;43.17
42177;BME280;28126;51.060;19.460;2022-08-07T01:14:55;100935.23;;;25.78;43.04
42177;BME280;28126;51.060;19.460;2022-08-07T01:17:59;100934.12;;;25.77;42.99
42177;BME280;28126;51.060;19.460;2022-08-07T01:21:11;100934.35;;;25.73;43.00
42177;BME280;28126;51.060;19.460;2022-08-07T01:24:15;100936.00;;;25.71;42.87
42177;BME280;28126;51.060;19.460;2022-08-07T01:27:18;100945.08;;;25.69;42.92
42177;BME280;28126;51.060;19.460;2022-08-07T01:30:21;100939.82;;;25.68;42.91
42177;BME280;28126;51.060;19.460;2022-08-07T01:33:23;100940.62;;;25.66;42.81
42177;BME280;28126;51.060;19.460;2022-08-07T01:36:28;100943.92;;;25.65;42.79
42177;BME280;28126;51.060;19.460;2022-08-07T01:39:32;100944.72;;;25.63;42.69
42177;BME280;28126;51.060;19.460;2022-08-07T01:42:36;100944.98;;;25.62;42.75
42177;BME280;28126;51.060;19.460;2022-08-07T01:45:41;100944.41;;;25.60;42.79
42177;BME280;28126;51.060;19.460;2022-08-07T01:48:47;100944.95;;;25.59;42.68
42177;BME280;28126;51.060;19.460;2022-08-07T01:51:50;100946.05;;;25.58;42.71
42177;BME280;28126;51.060;19.460;2022-08-07T01:54:54;100943.56;;;25.57;42.29
42177;BME280;28126;51.060;19.460;2022-08-07T01:57:59;100943.56;;;25.57;42.33
42177;BME280;28126;51.060;19.460;2022-08-07T02:01:11;100934.98;;;25.56;42.16
42177;BME280;28126;51.060;19.460;2022-08-07T02:04:24;100934.98;;;25.56;42.15
42177;BME280;28126;51.060;19.460;2022-08-07T02:07:33;100950.41;;;25.54;42.20
42177;BME280;28126;51.060;19.460;2022-08-07T02:10:38;100940.14;;;25.50;42.41
42177;BME280;28126;51.060;19.460;2022-08-07T02:13:41;100944.00;;;25.49;42.48
42177;BME280;28126;51.060;19.460;2022-08-07T02:16:46;100946.18;;;25.47;42.26
42177;BME280;28126;51.060;19.460;2022-08-07T02:19:52;100944.22;;;25.45;42.45
42177;BME280;28126;51.060;19.460;2022-08-07T02:22:58;100951.38;;;25.43;42.30
42177;BME280;28126;51.060;19.460;2022-08-07T02:26:03;100946.90;;;25.40;42.24
42177;BME280;28126;51.060;19.460;2022-08-07T02:29:07;100948.77;;;25.37;42.23
42177;BME280;28126;51.060;19.460;2022-08-07T02:32:11;100950.36;;;25.33;42.35
42177;BME280;28126;51.060;19.460;2022-08-07T02:35:16;100947.03;;;25.31;42.34
42177;BME280;28126;51.060;19.460;2022-08-07T02:38:25;100952.54;;;25.31;42.48
42177;BME280;28126;51.060;19.460;2022-08-07T02:41:28;100956.41;;;25.30;42.45
42177;BME280;28126;51.060;19.460;2022-08-07T02:44:30;100958.27;;;25.27;42.61
42177;BME280;28126;51.060;19.460;2022-08-07T02:47:32;100960.23;;;25.29;42.48
42177;BME280;28126;51.060;19.460;2022-08-07T02:50:40;100968.50;;;25.29;42.44
42177;BME280;28126;51.060;19.460;2022-08-07T02:53:44;100967.92;;;25.27;42.48
42177;BME280;28126;51.060;19.460;2022-08-07T02:56:49;100967.92;;;25.27;42.51
42177;BME280;28126;51.060;19.460;2022-08-07T02:59:51;100973.97;;;25.07;43.09
42177;BME280;28126;51.060;19.460;2022-08-07T03:02:55;100970.03;;;25.19;42.67
42177;BME280;28126;51.060;19.460;2022-08-07T03:05:58;100968.39;;;25.21;42.52
42177;BME280;28126;51.060;19.460;2022-08-07T03:09:04;100967.86;;;25.21;42.54
42177;BME280;28126;51.060;19.460;2022-08-07T03:12:08;100970.31;;;25.20;42.55
42177;BME280;28126;51.060;19.460;2022-08-07T03:15:12;100970.88;;;25.20;42.62
42177;BME280;28126;51.060;19.460;2022-08-07T03:18:15;100974.42;;;25.18;42.57
42177;BME280;28126;51.060;19.460;2022-08-07T03:21:17;100975.80;;;25.18;42.58
42177;BME280;28126;51.060;19.460;2022-08-07T03:24:19;100978.00;;;25.18;42.47
42177;BME280;28126;51.060;19.460;2022-08-07T03:27:22;100973.86;;;25.18;42.45
42177;BME280;28126;51.060;19.460;2022-08-07T03:30:25;100970.61;;;25.21;42.65
42177;BME280;28126;51.060;19.460;2022-08-07T03:33:27;100976.13;;;25.21;42.68
42177;BME280;28126;51.060;19.460;2022-08-07T03:36:31;100978.04;;;25.21;42.62
42177;BME280;28126;51.060;19.460;2022-08-07T03:39:35;100981.33;;;25.20;42.61
42177;BME280;28126;51.060;19.460;2022-08-07T03:42:37;100984.39;;;25.21;42.60
42177;BME280;28126;51.060;19.460;2022-08-07T03:45:40;100976.92;;;25.19;42.72
42177;BME280;28126;51.060;19.460;2022-08-07T03:48:44;100977.20;;;25.20;42.66
42177;BME280;28126;51.060;19.460;2022-08-07T03:51:47;100979.95;;;25.20;42.63
42177;BME280;28126;51.060;19.460;2022-08-07T03:54:51;100977.20;;;25.20;42.52
42177;BME280;28126;51.060;19.460;2022-08-07T03:57:54;100984.39;;;25.21;42.76
42177;BME280;28126;51.060;19.460;2022-08-07T04:00:57;100976.13;;;25.21;42.77
42177;BME280;28126;51.060;19.460;2022-08-07T04:04:00;100981.64;;;25.21;42.91
42177;BME280;28126;51.060;19.460;2022-08-07T04:07:02;100984.97;;;25.23;42.54
42177;BME280;28126;51.060;19.460;2022-08-07T04:10:05;100988.00;;;25.24;42.78
42177;BME280;28126;51.060;19.460;2022-08-07T04:13:12;100989.64;;;25.23;42.94
42177;BME280;28126;51.060;19.460;2022-08-07T04:16:14;100991.56;;;25.22;42.92
42177;BME280;28126;51.060;19.460;2022-08-07T04:19:16;100995.38;;;25.19;43.06
42177;BME280;28126;51.060;19.460;2022-08-07T04:22:22;100992.87;;;25.17;43.10
42177;BME280;28126;51.060;19.460;2022-08-07T04:25:26;100996.96;;;25.15;43.13
42177;BME280;28126;51.060;19.460;2022-08-07T04:28:29;100990.06;;;25.12;43.23
42177;BME280;28126;51.060;19.460;2022-08-07T04:31:32;100999.70;;;25.12;43.32
42177;BME280;28126;51.060;19.460;2022-08-07T04:34:34;100999.44;;;25.14;43.37
42177;BME280;28126;51.060;19.460;2022-08-07T04:37:37;101008.55;;;25.14;43.33
42177;BME280;28126;51.060;19.460;2022-08-07T04:40:43;101009.93;;;25.14;43.52
42177;BME280;28126;51.060;19.460;2022-08-07T04:43:45;101007.72;;;25.16;43.49
42177;BME280;28126;51.060;19.460;2022-08-07T04:46:59;101011.37;;;25.19;43.69
42177;BME280;28126;51.060;19.460;2022-08-07T04:50:09;101008.61;;;25.19;43.64
42177;BME280;28126;51.060;19.460;2022-08-07T04:53:33;101015.29;;;25.23;43.77
42177;BME280;28126;51.060;19.460;2022-08-07T04:57:05;101010.63;;;25.24;43.72
42177;BME280;28126;51.060;19.460;2022-08-07T05:00:12;101013.66;;;25.25;43.86
42177;BME280;28126;51.060;19.460;2022-08-07T05:06:55;101015.35;;;25.29;43.91
42177;BME280;28126;51.060;19.460;2022-08-07T05:10:15;101014.28;;;25.30;43.94
42177;BME280;28126;51.060;19.460;2022-08-07T05:13:34;101027.27;;;25.32;44.01
42177;BME280;28126;51.060;19.460;2022-08-07T05:16:39;101025.36;;;25.35;44.09
42177;BME280;28126;51.060;19.460;2022-08-07T05:19:46;101026.74;;;25.35;44.18
42177;BME280;28126;51.060;19.460;2022-08-07T05:22:52;101031.20;;;25.38;44.25
42177;BME280;28126;51.060;19.460;2022-08-07T05:25:56;101032.58;;;25.38;44.35
42177;BME280;28126;51.060;19.460;2022-08-07T05:29:03;101035.33;;;25.38;44.56
42177;BME280;28126;51.060;19.460;2022-08-07T05:32:07;101036.53;;;25.42;44.67
42177;BME280;28126;51.060;19.460;2022-08-07T05:35:10;101031.06;;;25.45;44.65
42177;BME280;28126;51.060;19.460;2022-08-07T05:38:13;101034.09;;;25.46;44.66
42177;BME280;28126;51.060;19.460;2022-08-07T05:41:17;101028.35;;;25.47;44.69
42177;BME280;28126;51.060;19.460;2022-08-07T05:44:21;101028.09;;;25.49;44.94
42177;BME280;28126;51.060;19.460;2022-08-07T05:47:23;101030.05;;;25.51;45.11
42177;BME280;28126;51.060;19.460;2022-08-07T05:50:25;101036.14;;;25.53;45.36
42177;BME280;28126;51.060;19.460;2022-08-07T05:53:28;101033.40;;;25.55;45.53
42177;BME280;28126;51.060;19.460;2022-08-07T05:56:33;101030.41;;;25.57;45.74
42177;BME280;28126;51.060;19.460;2022-08-07T05:59:38;101029.89;;;25.60;45.84
42177;BME280;28126;51.060;19.460;2022-08-07T06:02:47;101026.33;;;25.62;45.97
42177;BME280;28126;51.060;19.460;2022-08-07T06:05:49;101026.33;;;25.62;46.00
42177;BME280;28126;51.060;19.460;2022-08-07T06:08:53;101032.38;;;25.61;45.95
42177;BME280;28126;51.060;19.460;2022-08-07T06:11:58;101024.68;;;25.61;45.83
42177;BME280;28126;51.060;19.460;2022-08-07T06:15:01;101035.70;;;25.61;45.81
42177;BME280;28126;51.060;19.460;2022-08-07T06:18:06;101034.06;;;25.62;45.80
42177;BME280;28126;51.060;19.460;2022-08-07T06:21:10;101029.09;;;25.62;45.70
42177;BME280;28126;51.060;19.460;2022-08-07T06:24:12;101027.71;;;25.62;45.71
42177;BME280;28126;51.060;19.460;2022-08-07T06:27:22;101031.31;;;25.62;45.59
42177;BME280;28126;51.060;19.460;2022-08-07T06:30:25;101032.69;;;25.62;45.55
42177;BME280;28126;51.060;19.460;2022-08-07T06:33:27;101028.55;;;25.62;45.62
42177;BME280;28126;51.060;19.460;2022-08-07T06:36:29;101028.83;;;25.63;45.61
42177;BME280;28126;51.060;19.460;2022-08-07T06:39:32;101034.08;;;25.65;45.56
42177;BME280;28126;51.060;19.460;2022-08-07T06:42:35;101034.08;;;25.65;45.51
42177;BME280;28126;51.060;19.460;2022-08-07T06:45:50;101038.80;;;25.67;45.44
42177;BME280;28126;51.060;19.460;2022-08-07T06:48:52;101036.84;;;25.65;45.02
42177;BME280;28126;51.060;19.460;2022-08-07T06:51:56;101036.84;;;25.65;44.77
42177;BME280;28126;51.060;19.460;2022-08-07T06:55:00;101043.73;;;25.65;44.54
42177;BME280;28126;51.060;19.460;2022-08-07T06:58:06;101040.97;;;25.65;44.43
42177;BME280;28126;51.060;19.460;2022-08-07T07:01:12;101042.94;;;25.67;44.33
42177;BME280;28126;51.060;19.460;2022-08-07T07:04:14;101040.74;;;25.66;44.17
42177;BME280;28126;51.060;19.460;2022-08-07T07:07:17;101044.88;;;25.66;44.17
42177;BME280;28126;51.060;19.460;2022-08-07T07:10:32;101044.58;;;25.65;44.07
42177;BME280;28126;51.060;19.460;2022-08-07T07:13:42;101042.35;;;25.65;43.71
42177;BME280;28126;51.060;19.460;2022-08-07T07:16:44;101036.56;;;25.64;43.48
42177;BME280;28126;51.060;19.460;2022-08-07T07:19:52;101040.16;;;25.64;43.44
42177;BME280;28126;51.060;19.460;2022-08-07T07:22:54;101039.02;;;25.63;43.47
42177;BME280;28126;51.060;19.460;2022-08-07T07:26:01;101037.10;;;25.63;43.16
42177;BME280;28126;51.060;19.460;2022-08-07T07:29:11;101037.94;;;25.64;43.20
42177;BME280;28126;51.060;19.460;2022-08-07T07:32:12;101038.22;;;25.65;43.04
42177;BME280;28126;51.060;19.460;2022-08-07T07:35:15;101037.94;;;25.64;43.03
42177;BME280;28126;51.060;19.460;2022-08-07T07:38:22;101032.70;;;25.65;42.90
42177;BME280;28126;51.060;19.460;2022-08-07T07:41:26;101027.19;;;25.65;42.88
42177;BME280;28126;51.060;19.460;2022-08-07T07:44:30;101025.81;;;25.65;42.90
42177;BME280;28126;51.060;19.460;2022-08-07T07:47:37;101031.62;;;25.66;42.88
42177;BME280;28126;51.060;19.460;2022-08-07T07:50:40;101037.72;;;25.68;42.91
42177;BME280;28126;51.060;19.460;2022-08-07T07:53:44;101034.13;;;25.67;42.80
42177;BME280;28126;51.060;19.460;2022-08-07T07:56:46;101035.24;;;25.69;42.85
42177;BME280;28126;51.060;19.460;2022-08-07T07:59:51;101034.17;;;25.70;42.71
42177;BME280;28126;51.060;19.460;2022-08-07T08:03:10;101033.86;;;25.69;42.68
42177;BME280;28126;51.060;19.460;2022-08-07T08:06:13;101032.79;;;25.70;42.51
42177;BME280;28126;51.060;19.460;2022-08-07T08:09:18;101028.34;;;25.69;42.25
42177;BME280;28126;51.060;19.460;2022-08-07T08:12:21;101030.03;;;25.70;42.05
42177;BME280;28126;51.060;19.460;2022-08-07T08:15:25;101035.02;;;25.70;41.77
42177;BME280;28126;51.060;19.460;2022-08-07T08:18:28;101027.01;;;25.71;41.81
42177;BME280;28126;51.060;19.460;2022-08-07T08:21:31;101023.72;;;25.72;41.88
42177;BME280;28126;51.060;19.460;2022-08-07T08:24:45;101023.72;;;25.72;41.89
42177;BME280;28126;51.060;19.460;2022-08-07T08:28:06;101022.34;;;25.72;41.71
42177;BME280;28126;51.060;19.460;2022-08-07T08:31:14;101031.98;;;25.72;41.71
42177;BME280;28126;51.060;19.460;2022-08-07T08:34:16;101023.72;;;25.72;41.49
42177;BME280;28126;51.060;19.460;2022-08-07T08:37:21;101027.31;;;25.72;41.73
42177;BME280;28126;51.060;19.460;2022-08-07T08:40:31;101019.84;;;25.73;41.63
42177;BME280;28126;51.060;19.460;2022-08-07T08:43:42;101028.70;;;25.75;41.65
42177;BME280;28126;51.060;19.460;2022-08-07T08:46:58;101016.82;;;25.72;41.25
42177;BME280;28126;51.060;19.460;2022-08-07T08:50:13;101024.30;;;25.74;41.55
42177;BME280;28126;51.060;19.460;2022-08-07T08:56:43;101028.97;;;25.73;41.46
42177;BME280;28126;51.060;19.460;2022-08-07T09:03:07;101031.73;;;25.73;41.61
42177;BME280;28126;51.060;19.460;2022-08-07T09:06:34;101027.89;;;25.74;41.76
42177;BME280;28126;51.060;19.460;2022-08-07T09:13:29;101031.19;;;25.74;41.38
42177;BME280;28126;51.060;19.460;2022-08-07T09:23:17;101012.68;;;25.72;39.99
42177;BME280;28126;51.060;19.460;2022-08-07T09:33:42;101011.00;;;25.71;40.58
42177;BME280;28126;51.060;19.460;2022-08-07T09:40:08;101005.70;;;25.67;40.73
42177;BME280;28126;51.060;19.460;2022-08-07T09:46:54;100998.09;;;25.74;41.40
42177;BME280;28126;51.060;19.460;2022-08-07T09:53:16;100992.93;;;25.80;41.31
42177;BME280;28126;51.060;19.460;2022-08-07T09:56:45;100986.03;;;25.80;41.17
42177;BME280;28126;51.060;19.460;2022-08-07T10:03:35;100982.13;;;25.78;40.96
42177;BME280;28126;51.060;19.460;2022-08-07T10:35:34;100972.52;;;25.81;41.09
42177;BME280;28126;51.060;19.460;2022-08-07T10:45:20;100946.08;;;25.85;40.89
42177;BME280;28126;51.060;19.460;2022-08-07T10:52:18;100933.71;;;25.90;40.91
42177;BME280;28126;51.060;19.460;2022-08-07T10:55:28;100927.38;;;25.89;40.81
42177;BME280;28126;51.060;19.460;2022-08-07T11:06:25;100927.88;;;25.86;40.04
42177;BME280;28126;51.060;19.460;2022-08-07T11:12:45;100918.30;;;25.91;40.50
42177;BME280;28126;51.060;19.460;2022-08-07T11:15:48;100911.14;;;25.93;40.74
42177;BME280;28126;51.060;19.460;2022-08-07T11:19:04;100911.45;;;25.96;41.48
42177;BME280;28126;51.060;19.460;2022-08-07T11:25:39;100912.90;;;26.04;42.68
42177;BME280;28126;51.060;19.460;2022-08-07T11:28:48;100901.09;;;26.06;44.22
42177;BME280;28126;51.060;19.460;2022-08-07T11:35:14;100904.76;;;26.14;47.23
42177;BME280;28126;51.060;19.460;2022-08-07T11:41:45;100902.33;;;26.20;48.25
42177;BME280;28126;51.060;19.460;2022-08-07T11:45:17;100897.92;;;26.22;47.02
42177;BME280;28126;51.060;19.460;2022-08-07T11:59:11;100893.00;;;26.29;45.75
42177;BME280;28126;51.060;19.460;2022-08-07T12:06:17;100885.30;;;26.28;44.59
42177;BME280;28126;51.060;19.460;2022-08-07T12:09:36;100882.27;;;26.30;44.20
42177;BME280;28126;51.060;19.460;2022-08-07T12:12:37;100876.74;;;26.30;42.21
42177;BME280;28126;51.060;19.460;2022-08-07T12:15:45;100873.14;;;26.29;41.74
42177;BME280;28126;51.060;19.460;2022-08-07T12:19:00;100873.11;;;26.27;40.64
42177;BME280;28126;51.060;19.460;2022-08-07T12:22:09;100867.30;;;26.23;40.87
42177;BME280;28126;51.060;19.460;2022-08-07T12:25:21;100865.91;;;26.23;40.27
42177;BME280;28126;51.060;19.460;2022-08-07T12:35:22;100859.02;;;26.23;39.64
42177;BME280;28126;51.060;19.460;2022-08-07T12:38:26;100854.90;;;26.26;39.55
42177;BME280;28126;51.060;19.460;2022-08-07T12:41:28;100857.39;;;26.27;39.34
42177;BME280;28126;51.060;19.460;2022-08-07T12:44:31;100836.42;;;26.26;39.33
42177;BME280;28126;51.060;19.460;2022-08-07T12:51:12;100839.75;;;26.28;39.98
42177;BME280;28126;51.060;19.460;2022-08-07T12:57:57;100827.63;;;26.32;40.36
42177;BME280;28126;51.060;19.460;2022-08-07T13:01:18;100824.33;;;26.32;40.55
42177;BME280;28126;51.060;19.460;2022-08-07T13:04:55;100827.11;;;26.37;40.78
42177;BME280;28126;51.060;19.460;2022-08-07T13:15:25;100821.86;;;26.38;40.17
42177;BME280;28126;51.060;19.460;2022-08-07T13:18:40;100825.16;;;26.35;39.24
42177;BME280;28126;51.060;19.460;2022-08-07T13:22:03;100823.21;;;26.33;39.07
42177;BME280;28126;51.060;19.460;2022-08-07T13:25:24;100821.83;;;26.33;39.07
42177;BME280;28126;51.060;19.460;2022-08-07T13:28:50;100820.45;;;26.33;39.17
42177;BME280;28126;51.060;19.460;2022-08-07T13:31:59;100810.52;;;26.35;38.77
42177;BME280;28126;51.060;19.460;2022-08-07T13:35:11;100810.22;;;26.31;38.16
42177;BME280;28126;51.060;19.460;2022-08-07T13:41:42;100807.19;;;26.33;38.52
42177;BME280;28126;51.060;19.460;2022-08-07T13:44:45;100801.16;;;26.36;38.74
42177;BME280;28126;51.060;19.460;2022-08-07T13:47:54;100809.16;;;26.37;38.49
42177;BME280;28126;51.060;19.460;2022-08-07T13:50:57;100795.06;;;26.36;37.72
42177;BME280;28126;51.060;19.460;2022-08-07T13:54:06;100790.92;;;26.36;37.95
42177;BME280;28126;51.060;19.460;2022-08-07T13:57:11;100787.35;;;26.36;37.92
42177;BME280;28126;51.060;19.460;2022-08-07T14:00:15;100784.83;;;26.34;37.75
42177;BME280;28126;51.060;19.460;2022-08-07T14:03:20;100779.32;;;26.32;37.21
42177;BME280;28126;51.060;19.460;2022-08-07T14:06:22;100787.57;;;26.29;36.98
42177;BME280;28126;51.060;19.460;2022-08-07T14:09:27;100780.64;;;26.27;36.88
42177;BME280;28126;51.060;19.460;2022-08-07T14:15:55;100785.90;;;26.26;36.74
42177;BME280;28126;51.060;19.460;2022-08-07T14:18:58;100780.64;;;26.27;36.47
42177;BME280;28126;51.060;19.460;2022-08-07T14:22:05;100777.62;;;26.26;36.38
42177;BME280;28126;51.060;19.460;2022-08-07T14:25:10;100769.61;;;26.24;36.16
42177;BME280;28126;51.060;19.460;2022-08-07T14:28:14;100770.42;;;26.25;36.55
42177;BME280;28126;51.060;19.460;2022-08-07T14:31:18;100773.20;;;26.27;36.78
42177;BME280;28126;51.060;19.460;2022-08-07T14:34:23;100765.77;;;26.28;36.92
42177;BME280;28126;51.060;19.460;2022-08-07T14:37:26;100766.03;;;26.29;36.80
42177;BME280;28126;51.060;19.460;2022-08-07T14:40:29;100759.13;;;26.29;36.70
42177;BME280;28126;51.060;19.460;2022-08-07T14:43:40;100758.56;;;26.27;36.11
42177;BME280;28126;51.060;19.460;2022-08-07T14:46:43;100759.95;;;26.27;36.39
42177;BME280;28126;51.060;19.460;2022-08-07T14:49:47;100754.70;;;26.25;36.71
42177;BME280;28126;51.060;19.460;2022-08-07T14:52:49;100750.28;;;26.27;36.75
42177;BME280;28126;51.060;19.460;2022-08-07T14:55:52;100753.88;;;26.27;35.78
42177;BME280;28126;51.060;19.460;2022-08-07T14:58:59;100754.16;;;26.26;35.82
42177;BME280;28126;51.060;19.460;2022-08-07T15:02:18;100742.58;;;26.26;35.54
42177;BME280;28126;51.060;19.460;2022-08-07T15:05:20;100752.78;;;26.26;36.04
42177;BME280;28126;51.060;19.460;2022-08-07T15:08:38;100746.98;;;26.27;36.14
42177;BME280;28126;51.060;19.460;2022-08-07T15:11:59;100747.28;;;26.28;36.02
42177;BME280;28126;51.060;19.460;2022-08-07T15:15:07;100747.52;;;26.27;36.34
42177;BME280;28126;51.060;19.460;2022-08-07T15:18:13;100739.25;;;26.24;35.97
42177;BME280;28126;51.060;19.460;2022-08-07T15:21:27;100734.81;;;26.23;36.10
42177;BME280;28126;51.060;19.460;2022-08-07T15:24:37;100735.65;;;26.24;36.03
42177;BME280;28126;51.060;19.460;2022-08-07T15:27:43;100729.59;;;26.24;35.95
42177;BME280;28126;51.060;19.460;2022-08-07T15:30:47;100727.07;;;26.23;35.53
42177;BME280;28126;51.060;19.460;2022-08-07T15:33:57;100725.16;;;26.21;35.61
42177;BME280;28126;51.060;19.460;2022-08-07T15:37:05;100725.70;;;26.20;35.55
42177;BME280;28126;51.060;19.460;2022-08-07T15:40:12;100727.64;;;26.22;35.85
42177;BME280;28126;51.060;19.460;2022-08-07T15:43:21;100722.39;;;26.23;36.07
42177;BME280;28126;51.060;19.460;2022-08-07T15:46:23;100725.15;;;26.23;36.13
42177;BME280;28126;51.060;19.460;2022-08-07T15:49:32;100722.69;;;26.24;36.10
42177;BME280;28126;51.060;19.460;2022-08-07T15:52:36;100716.59;;;26.25;36.25
42177;BME280;28126;51.060;19.460;2022-08-07T15:55:46;100714.41;;;26.24;36.35
42177;BME280;28126;51.060;19.460;2022-08-07T15:58:51;100720.47;;;26.24;36.36
42177;BME280;28126;51.060;19.460;2022-08-07T16:01:55;100721.02;;;26.21;36.49
42177;BME280;28126;51.060;19.460;2022-08-07T16:05:01;100723.21;;;26.19;36.64
42177;BME280;28126;51.060;19.460;2022-08-07T16:08:15;100718.50;;;26.19;36.82
42177;BME280;28126;51.060;19.460;2022-08-07T16:14:58;100720.17;;;26.20;37.14
42177;BME280;28126;51.060;19.460;2022-08-07T16:27:58;100727.02;;;26.15;36.08
42177;BME280;28126;51.060;19.460;2022-08-07T16:34:49;100720.94;;;26.13;36.00
42177;BME280;28126;51.060;19.460;2022-08-07T16:48:51;100713.20;;;26.10;35.50
42177;BME280;28126;51.060;19.460;2022-08-07T16:58:57;100725.89;;;26.11;35.61
42177;BME280;28126;51.060;19.460;2022-08-07T17:16:26;100732.17;;;26.04;35.54
42177;BME280;28126;51.060;19.460;2022-08-07T17:19:45;100737.69;;;26.04;35.78
42177;BME280;28126;51.060;19.460;2022-08-07T17:26:29;100735.47;;;26.01;35.53
42177;BME280;28126;51.060;19.460;2022-08-07T17:30:01;100736.55;;;26.00;35.54
42177;BME280;28126;51.060;19.460;2022-08-07T17:33:13;100738.74;;;25.98;35.32
42177;BME280;28126;51.060;19.460;2022-08-07T17:36:27;100738.48;;;25.97;35.51
42177;BME280;28126;51.060;19.460;2022-08-07T17:39:54;100738.48;;;25.97;35.64
42177;BME280;28126;51.060;19.460;2022-08-07T17:43:08;100741.53;;;26.00;35.74
42177;BME280;28126;51.060;19.460;2022-08-07T17:49:47;100744.53;;;25.96;35.97
42177;BME280;28126;51.060;19.460;2022-08-07T17:52:55;100745.37;;;25.97;36.04
42177;BME280;28126;51.060;19.460;2022-08-07T17:56:15;100740.12;;;25.95;36.27
42177;BME280;28126;51.060;19.460;2022-08-07T17:59:45;100738.98;;;25.94;36.18
42177;BME280;28126;51.060;19.460;2022-08-07T18:06:07;100749.19;;;25.91;36.37
42177;BME280;28126;51.060;19.460;2022-08-07T18:09:08;100757.19;;;25.92;36.74
42177;BME280;28126;51.060;19.460;2022-08-07T18:12:32;100751.13;;;25.93;36.65
42177;BME280;28126;51.060;19.460;2022-08-07T18:16:04;100756.91;;;25.94;36.64
42177;BME280;28126;51.060;19.460;2022-08-07T18:19:24;100758.59;;;25.95;36.89
42177;BME280;28126;51.060;19.460;2022-08-07T18:22:36;100762.19;;;25.98;37.61
42177;BME280;28126;51.060;19.460;2022-08-07T18:25:42;100767.77;;;26.03;38.11
42177;BME280;28126;51.060;19.460;2022-08-07T18:29:08;100771.42;;;26.08;38.21
42177;BME280;28126;51.060;19.460;2022-08-07T18:33:12;100771.98;;;26.13;38.46
42177;BME280;28126;51.060;19.460;2022-08-07T18:36:19;100773.70;;;26.19;38.81
42177;BME280;28126;51.060;19.460;2022-08-07T18:43:10;100783.16;;;26.31;38.99
42177;BME280;28126;51.060;19.460;2022-08-07T18:46:36;100776.55;;;26.34;39.00
42177;BME280;28126;51.060;19.460;2022-08-07T18:50:07;100775.79;;;26.41;38.98
42177;BME280;28126;51.060;19.460;2022-08-07T18:53:45;100773.59;;;26.46;39.01
42177;BME280;28126;51.060;19.460;2022-08-07T18:56:49;100777.80;;;26.53;38.90
42177;BME280;28126;51.060;19.460;2022-08-07T19:06:35;100775.98;;;26.71;38.95
42177;BME280;28126;51.060;19.460;2022-08-07T19:10:07;100769.36;;;26.75;38.79
42177;BME280;28126;51.060;19.460;2022-08-07T19:16:49;100758.66;;;26.86;38.76
42177;BME280;28126;51.060;19.460;2022-08-07T19:26:15;100754.00;;;26.99;38.40
42177;BME280;28126;51.060;19.460;2022-08-07T19:29:22;100754.28;;;27.03;38.26
42177;BME280;28126;51.060;19.460;2022-08-07T19:32:29;100747.67;;;27.09;38.31
42177;BME280;28126;51.060;19.460;2022-08-07T19:35:35;100750.72;;;27.12;38.29
42177;BME280;28126;51.060;19.460;2022-08-07T19:38:43;100758.75;;;27.16;38.21
42177;BME280;28126;51.060;19.460;2022-08-07T19:41:46;100753.23;;;27.19;38.17
42177;BME280;28126;51.060;19.460;2022-08-07T19:44:50;100753.22;;;27.21;38.07
42177;BME280;28126;51.060;19.460;2022-08-07T19:47:53;100746.33;;;27.24;38.02
42177;BME280;28126;51.060;19.460;2022-08-07T19:51:02;100751.86;;;27.29;37.97
42177;BME280;28126;51.060;19.460;2022-08-07T19:54:04;100745.28;;;27.32;37.87